sensor_id;sensor_type;location;lat;lon;timestamp;P1;durP1;ratioP1;P2;durP2;ratioP2
29414;SDS011;20303;48.302;11.914;2023-05-10T00:07:01;2.90;;;2.70;;
29414;SDS011;20303;48.302;11.914;2023-05-10T00:17:02;3.10;;;2.78;;
29414;SDS011;20303;48.302;11.914;2023-05-10T00:27:03;2.95;;;2.47;;
29414;SDS011;20303;48.302;11.914;2023-05-10T00:37:04;2.72;;;2.53;;
29414;SDS011;20303;48.302;11.914;2023-05-10T00:47:05;2.90;;;2.70;;
29414;SDS011;20303;48.302;11.914;2023-05-10T00:57:07;3.33;;;2.70;;
29414;SDS011;20303;48.302;11.914;2023-05-10T01:07:08;2.50;;;2.30;;
29414;SDS011;20303;48.302;11.914;2023-05-10T01:17:10;2.53;;;2.30;;
29414;SDS011;20303;48.302;11.914;2023-05-10T01:37:59;2.20;;;2.00;;
29414;SDS011;20303;48.302;11.914;2023-05-10T01:48:11;2.30;;;2.10;;
29414;SDS011;20303;48.302;11.914;2023-05-10T01:58:22;2.67;;;2.00;;
29414;SDS011;20303;48.302;11.914;2023-05-10T02:08:25;2.08;;;1.88;;
29414;SDS011;20303;48.302;11.914;2023-05-10T02:18:27;2.20;;;2.00;;
29414;SDS011;20303;48.302;11.914;2023-05-10T02:28:28;2.15;;;1.95;;
29414;SDS011;20303;48.302;11.914;2023-05-10T02:38:30;2.03;;;1.90;;
29414;SDS011;20303;48.302;11.914;2023-05-10T02:48:33;2.00;;;1.80;;
29414;SDS011;20303;48.302;11.914;2023-05-10T02:58:34;1.80;;;1.70;;
29414;SDS011;20303;48.302;11.914;2023-05-10T03:08:35;1.90;;;1.70;;
29414;SDS011;20303;48.302;11.914;2023-05-10T03:18:54;1.73;;;1.60;;
29414;SDS011;20303;48.302;11.914;2023-05-10T03:29:02;1.60;;;1.50;;
29414;SDS011;20303;48.302;11.914;2023-05-10T03:39:04;1.70;;;1.38;;
29414;SDS011;20303;48.302;11.914;2023-05-10T03:49:05;1.50;;;1.40;;
29414;SDS011;20303;48.302;11.914;2023-05-10T03:59:06;1.70;;;1.48;;
29414;SDS011;20303;48.302;11.914;2023-05-10T04:09:08;1.50;;;1.30;;
29414;SDS011;20303;48.302;11.914;2023-05-10T04:19:09;1.55;;;1.38;;
29414;SDS011;20303;48.302;11.914;2023-05-10T04:29:10;1.38;;;1.27;;
29414;SDS011;20303;48.302;11.914;2023-05-10T04:39:11;1.40;;;1.30;;
29414;SDS011;20303;48.302;11.914;2023-05-10T04:49:13;1.20;;;1.10;;
29414;SDS011;20303;48.302;11.914;2023-05-10T04:59:14;1.20;;;1.10;;
29414;SDS011;20303;48.302;11.914;2023-05-10T05:09:15;1.10;;;1.00;;
29414;SDS011;20303;48.302;11.914;2023-05-10T05:19:16;1.60;;;1.10;;
29414;SDS011;20303;48.302;11.914;2023-05-10T05:29:17;1.60;;;1.10;;
29414;SDS011;20303;48.302;11.914;2023-05-10T05:39:18;1.33;;;1.00;;
29414;SDS011;20303;48.302;11.914;2023-05-10T05:49:19;1.00;;;0.90;;
29414;SDS011;20303;48.302;11.914;2023-05-10T05:59:20;0.82;;;0.82;;
29414;SDS011;20303;48.302;11.914;2023-05-10T06:09:22;1.13;;;0.90;;
29414;SDS011;20303;48.302;11.914;2023-05-10T06:19:24;0.80;;;0.80;;
29414;SDS011;20303;48.302;11.914;2023-05-10T06:29:26;1.38;;;0.90;;
29414;SDS011;20303;48.302;11.914;2023-05-10T06:39:27;1.27;;;0.90;;
29414;SDS011;20303;48.302;11.914;2023-05-10T06:49:28;1.17;;;0.82;;
29414;SDS011;20303;48.302;11.914;2023-05-10T06:59:29;2.15;;;0.80;;
29414;SDS011;20303;48.302;11.914;2023-05-10T07:09:30;1.88;;;0.93;;
29414;SDS011;20303;48.302;11.914;2023-05-10T07:19:32;1.08;;;0.90;;
29414;SDS011;20303;48.302;11.914;2023-05-10T07:29:33;1.30;;;0.98;;
29414;SDS011;20303;48.302;11.914;2023-05-10T07:39:34;0.70;;;0.70;;
29414;SDS011;20303;48.302;11.914;2023-05-10T07:49:35;0.70;;;0.70;;
29414;SDS011;20303;48.302;11.914;2023-05-10T07:59:36;1.02;;;0.70;;
29414;SDS011;20303;48.302;11.914;2023-05-10T08:09:37;0.65;;;0.60;;
29414;SDS011;20303;48.302;11.914;2023-05-10T08:19:38;0.98;;;0.70;;
29414;SDS011;20303;48.302;11.914;2023-05-10T08:29:39;1.10;;;0.70;;
29414;SDS011;20303;48.302;11.914;2023-05-10T08:39:40;1.23;;;0.60;;
29414;SDS011;20303;48.302;11.914;2023-05-10T08:49:41;1.52;;;0.70;;
29414;SDS011;20303;48.302;11.914;2023-05-10T08:59:44;1.35;;;0.75;;
29414;SDS011;20303;48.302;11.914;2023-05-10T09:09:45;2.10;;;0.73;;
29414;SDS011;20303;48.302;11.914;2023-05-10T09:19:47;1.60;;;0.80;;
29414;SDS011;20303;48.302;11.914;2023-05-10T09:29:48;1.13;;;0.70;;
29414;SDS011;20303;48.302;11.914;2023-05-10T09:39:53;1.40;;;0.70;;
29414;SDS011;20303;48.302;11.914;2023-05-10T09:49:55;2.72;;;0.90;;
29414;SDS011;20303;48.302;11.914;2023-05-10T09:59:59;1.17;;;0.80;;
29414;SDS011;20303;48.302;11.914;2023-05-10T10:10:00;0.90;;;0.70;;
29414;SDS011;20303;48.302;11.914;2023-05-10T10:20:02;0.90;;;0.60;;
29414;SDS011;20303;48.302;11.914;2023-05-10T10:30:16;1.50;;;0.70;;
29414;SDS011;20303;48.302;11.914;2023-05-10T10:40:30;0.75;;;0.68;;
29414;SDS011;20303;48.302;11.914;2023-05-10T10:50:36;0.75;;;0.65;;
29414;SDS011;20303;48.302;11.914;2023-05-10T11:00:46;1.52;;;0.70;;
29414;SDS011;20303;48.302;11.914;2023-05-10T11:20:55;0.60;;;0.60;;
29414;SDS011;20303;48.302;11.914;2023-05-10T11:30:58;0.60;;;0.60;;
29414;SDS011;20303;48.302;11.914;2023-05-10T11:40:59;0.60;;;0.60;;
29414;SDS011;20303;48.302;11.914;2023-05-10T11:51:01;0.60;;;0.60;;
29414;SDS011;20303;48.302;11.914;2023-05-10T12:01:02;0.80;;;0.70;;
29414;SDS011;20303;48.302;11.914;2023-05-10T12:11:08;0.60;;;0.60;;
29414;SDS011;20303;48.302;11.914;2023-05-10T12:21:14;4.28;;;0.95;;
29414;SDS011;20303;48.302;11.914;2023-05-10T12:31:15;1.48;;;0.90;;
29414;SDS011;20303;48.302;11.914;2023-05-10T12:41:16;2.90;;;1.00;;
29414;SDS011;20303;48.302;11.914;2023-05-10T12:51:18;0.90;;;0.77;;
29414;SDS011;20303;48.302;11.914;2023-05-10T13:01:21;1.23;;;0.90;;
29414;SDS011;20303;48.302;11.914;2023-05-10T13:11:22;1.33;;;0.85;;
29414;SDS011;20303;48.302;11.914;2023-05-10T13:21:24;1.65;;;0.80;;
29414;SDS011;20303;48.302;11.914;2023-05-10T13:31:25;1.38;;;0.85;;
29414;SDS011;20303;48.302;11.914;2023-05-10T13:41:26;1.15;;;0.82;;
29414;SDS011;20303;48.302;11.914;2023-05-10T13:51:27;2.90;;;0.90;;
29414;SDS011;20303;48.302;11.914;2023-05-10T14:01:28;1.55;;;1.08;;
29414;SDS011;20303;48.302;11.914;2023-05-10T14:11:29;1.27;;;0.95;;
29414;SDS011;20303;48.302;11.914;2023-05-10T14:21:30;3.15;;;0.88;;
29414;SDS011;20303;48.302;11.914;2023-05-10T14:31:31;1.38;;;0.70;;
29414;SDS011;20303;48.302;11.914;2023-05-10T14:41:32;0.93;;;0.75;;
29414;SDS011;20303;48.302;11.914;2023-05-10T14:51:33;0.80;;;0.70;;
29414;SDS011;20303;48.302;11.914;2023-05-10T15:01:36;2.00;;;0.80;;
29414;SDS011;20303;48.302;11.914;2023-05-10T15:11:41;1.48;;;0.73;;
29414;SDS011;20303;48.302;11.914;2023-05-10T15:21:42;1.27;;;0.70;;
29414;SDS011;20303;48.302;11.914;2023-05-10T15:31:44;2.88;;;0.93;;
29414;SDS011;20303;48.302;11.914;2023-05-10T15:41:46;1.23;;;0.75;;
29414;SDS011;20303;48.302;11.914;2023-05-10T15:51:47;0.80;;;0.70;;
29414;SDS011;20303;48.302;11.914;2023-05-10T16:01:48;1.42;;;0.73;;
29414;SDS011;20303;48.302;11.914;2023-05-10T16:11:49;1.52;;;0.85;;
29414;SDS011;20303;48.302;11.914;2023-05-10T16:21:51;1.23;;;0.75;;
29414;SDS011;20303;48.302;11.914;2023-05-10T16:31:52;1.17;;;0.70;;
29414;SDS011;20303;48.302;11.914;2023-05-10T16:41:53;0.68;;;0.63;;
29414;SDS011;20303;48.302;11.914;2023-05-10T16:51:54;2.45;;;0.70;;
29414;SDS011;20303;48.302;11.914;2023-05-10T17:01:55;0.80;;;0.73;;
29414;SDS011;20303;48.302;11.914;2023-05-10T17:11:56;1.42;;;0.80;;
29414;SDS011;20303;48.302;11.914;2023-05-10T17:21:58;1.15;;;0.70;;
29414;SDS011;20303;48.302;11.914;2023-05-10T17:31:59;0.90;;;0.75;;
29414;SDS011;20303;48.302;11.914;2023-05-10T17:42:00;1.65;;;0.80;;
29414;SDS011;20303;48.302;11.914;2023-05-10T17:52:01;0.70;;;0.70;;
29414;SDS011;20303;48.302;11.914;2023-05-10T18:02:02;2.15;;;0.80;;
29414;SDS011;20303;48.302;11.914;2023-05-10T18:12:03;1.23;;;0.80;;
29414;SDS011;20303;48.302;11.914;2023-05-10T18:22:05;0.80;;;0.70;;
29414;SDS011;20303;48.302;11.914;2023-05-10T18:32:06;1.25;;;0.70;;
29414;SDS011;20303;48.302;11.914;2023-05-10T18:42:07;1.08;;;0.80;;
29414;SDS011;20303;48.302;11.914;2023-05-10T18:52:08;0.90;;;0.70;;
29414;SDS011;20303;48.302;11.914;2023-05-10T19:02:09;1.17;;;0.70;;
29414;SDS011;20303;48.302;11.914;2023-05-10T19:12:10;1.25;;;0.70;;
29414;SDS011;20303;48.302;11.914;2023-05-10T19:22:11;2.47;;;0.75;;
29414;SDS011;20303;48.302;11.914;2023-05-10T19:32:12;0.75;;;0.60;;
29414;SDS011;20303;48.302;11.914;2023-05-10T19:42:13;1.17;;;0.70;;
29414;SDS011;20303;48.302;11.914;2023-05-10T19:52:14;1.20;;;0.70;;
29414;SDS011;20303;48.302;11.914;2023-05-10T20:02:15;0.98;;;0.70;;
29414;SDS011;20303;48.302;11.914;2023-05-10T20:12:17;0.70;;;0.70;;
29414;SDS011;20303;48.302;11.914;2023-05-10T20:22:18;1.23;;;0.70;;
29414;SDS011;20303;48.302;11.914;2023-05-10T20:32:19;1.58;;;0.73;;
29414;SDS011;20303;48.302;11.914;2023-05-10T20:42:20;0.80;;;0.70;;
29414;SDS011;20303;48.302;11.914;2023-05-10T20:52:21;0.70;;;0.60;;
29414;SDS011;20303;48.302;11.914;2023-05-10T21:02:22;0.93;;;0.70;;
29414;SDS011;20303;48.302;11.914;2023-05-10T21:12:23;1.35;;;0.80;;
29414;SDS011;20303;48.302;11.914;2023-05-10T21:22:24;1.20;;;0.70;;
29414;SDS011;20303;48.302;11.914;2023-05-10T21:32:25;0.80;;;0.70;;
29414;SDS011;20303;48.302;11.914;2023-05-10T21:42:26;0.90;;;0.60;;
29414;SDS011;20303;48.302;11.914;2023-05-10T21:52:27;1.25;;;0.73;;
29414;SDS011;20303;48.302;11.914;2023-05-10T22:02:28;0.65;;;0.65;;
29414;SDS011;20303;48.302;11.914;2023-05-10T22:12:29;1.63;;;0.80;;
29414;SDS011;20303;48.302;11.914;2023-05-10T22:22:30;0.98;;;0.63;;
29414;SDS011;20303;48.302;11.914;2023-05-10T22:32:32;1.00;;;0.60;;
29414;SDS011;20303;48.302;11.914;2023-05-10T22:42:33;0.85;;;0.80;;
29414;SDS011;20303;48.302;11.914;2023-05-10T22:52:34;0.70;;;0.60;;
29414;SDS011;20303;48.302;11.914;2023-05-10T23:02:37;1.13;;;0.70;;
29414;SDS011;20303;48.302;11.914;2023-05-10T23:12:39;0.95;;;0.60;;
29414;SDS011;20303;48.302;11.914;2023-05-10T23:22:40;0.80;;;0.65;;
29414;SDS011;20303;48.302;11.914;2023-05-10T23:32:41;0.85;;;0.60;;
29414;SDS011;20303;48.302;11.914;2023-05-10T23:42:42;1.05;;;0.60;;
29414;SDS011;20303;48.302;11.914;2023-05-10T23:52:43;0.77;;;0.60;;
